createdAt,value
2023-03-28T00:01:00.640Z,24.70
2023-03-28T00:03:28.984Z,24.55
2023-03-28T00:05:58.146Z,19.50
2023-03-28T00:08:25.154Z,11.73
2023-03-28T00:10:52.436Z,19.65
2023-03-28T00:13:19.849Z,29.52
2023-03-28T00:15:48.500Z,25.55
2023-03-28T00:18:15.629Z,21.98
2023-03-28T00:20:43.858Z,19.30
2023-03-28T00:23:13.220Z,15.85
2023-03-28T00:25:42.145Z,22.83
2023-03-28T00:28:09.520Z,14.48
2023-03-28T00:30:37.009Z,13.77
2023-03-28T00:33:05.336Z,12.77
2023-03-28T00:35:33.668Z,19.30
2023-03-28T00:38:00.323Z,18.77
2023-03-28T00:40:27.752Z,15.27
2023-03-28T00:42:55.189Z,23.00
2023-03-28T00:45:23.859Z,26.45
2023-03-28T00:48:04.469Z,17.52
2023-03-28T00:50:36.993Z,13.27
2023-03-28T00:53:26.256Z,24.17
2023-03-28T00:56:01.809Z,23.15
2023-03-28T00:58:33.447Z,20.05
2023-03-28T01:01:01.511Z,14.93
2023-03-28T01:03:33.709Z,15.88
2023-03-28T01:06:05.572Z,22.48
2023-03-28T01:08:41.019Z,15.23
2023-03-28T01:11:09.330Z,17.30
2023-03-28T01:13:40.858Z,14.25
2023-03-28T01:16:09.477Z,17.95
2023-03-28T01:18:37.375Z,10.98
2023-03-28T01:21:37.360Z,20.45
2023-03-28T01:24:32.059Z,21.17
2023-03-28T01:27:29.169Z,19.42
2023-03-28T01:30:33.966Z,15.50
2023-03-28T01:34:07.845Z,15.90
2023-03-28T01:36:59.183Z,20.45
2023-03-28T01:39:34.012Z,19.45
2023-03-28T01:45:01.080Z,12.82
2023-03-28T01:47:34.983Z,19.00
2023-03-28T01:50:18.092Z,20.67
2023-03-28T01:53:09.383Z,11.10
2023-03-28T01:55:48.571Z,10.18
2023-03-28T01:58:42.071Z,16.92
2023-03-28T02:01:23.351Z,13.65
2023-03-28T02:03:57.820Z,18.88
2023-03-28T02:06:47.407Z,15.82
2023-03-28T02:09:24.073Z,15.02
2023-03-28T02:12:17.387Z,16.13
2023-03-28T02:15:05.090Z,15.32
2023-03-28T02:20:38.053Z,9.07
2023-03-28T02:23:20.826Z,14.90
2023-03-28T02:26:12.110Z,29.75
2023-03-28T02:28:59.702Z,16.05
2023-03-28T02:31:49.731Z,20.50
2023-03-28T02:34:17.063Z,17.52
2023-03-28T02:37:19.270Z,19.85
2023-03-28T02:40:01.928Z,21.20
2023-03-28T02:43:03.620Z,20.25
2023-03-28T02:45:36.736Z,25.45
2023-03-28T02:50:49.012Z,13.13
2023-03-28T02:53:22.227Z,16.13
2023-03-28T02:56:05.192Z,14.40
2023-03-28T02:59:04.471Z,15.52
2023-03-28T03:01:32.482Z,19.42
2023-03-28T03:04:00.581Z,17.35
2023-03-28T03:06:28.043Z,17.20
2023-03-28T03:08:54.668Z,17.30
2023-03-28T03:11:25.292Z,23.05
2023-03-28T03:13:51.901Z,15.38
2023-03-28T03:16:19.192Z,23.50
2023-03-28T03:18:46.294Z,13.38
2023-03-28T03:21:13.599Z,14.20
2023-03-28T03:23:42.323Z,15.88
2023-03-28T03:26:09.607Z,24.30
2023-03-28T03:28:41.077Z,14.40
2023-03-28T03:31:09.214Z,24.85
2023-03-28T03:34:08.062Z,20.13
2023-03-28T03:36:41.202Z,29.13
2023-03-28T03:39:08.294Z,24.23
2023-03-28T03:41:36.573Z,25.50
2023-03-28T03:44:05.862Z,23.35
2023-03-28T03:46:33.249Z,25.73
2023-03-28T03:48:59.908Z,24.25
2023-03-28T03:51:27.361Z,21.58
2023-03-28T03:53:57.884Z,24.02
2023-03-28T03:56:33.370Z,21.27
2023-03-28T03:59:00.870Z,16.88
2023-03-28T04:01:31.380Z,15.50
2023-03-28T04:04:09.766Z,22.75
2023-03-28T04:06:59.770Z,23.85
2023-03-28T04:09:28.557Z,18.58
2023-03-28T04:11:59.721Z,22.47
2023-03-28T04:14:27.166Z,21.63
2023-03-28T04:17:16.287Z,24.27
2023-03-28T04:19:43.662Z,19.60
2023-03-28T04:22:13.271Z,21.23
2023-03-28T04:24:49.638Z,28.92
2023-03-28T04:27:26.411Z,19.20
2023-03-28T04:29:56.312Z,23.85
2023-03-28T04:32:50.624Z,31.00
2023-03-28T04:35:24.051Z,31.67
2023-03-28T04:37:53.938Z,21.70
2023-03-28T04:40:21.899Z,25.88
2023-03-28T04:42:59.470Z,22.52
2023-03-28T04:45:35.012Z,24.67
2023-03-28T04:48:12.332Z,25.25
2023-03-28T04:50:39.046Z,19.75
2023-03-28T04:53:06.539Z,24.40
2023-03-28T04:55:33.741Z,18.38
2023-03-28T04:58:12.552Z,17.10
2023-03-28T05:00:39.314Z,28.13
2023-03-28T05:03:37.847Z,29.67
2023-03-28T05:06:06.394Z,27.67
2023-03-28T05:08:33.667Z,26.45
2023-03-28T05:11:01.190Z,24.00
2023-03-28T05:13:28.757Z,27.52
2023-03-28T05:16:06.736Z,26.15
2023-03-28T05:18:56.363Z,26.92
2023-03-28T05:21:46.231Z,34.00
2023-03-28T05:24:12.957Z,36.17
2023-03-28T05:26:40.546Z,26.60
2023-03-28T05:29:08.696Z,23.52
2023-03-28T05:31:36.468Z,31.25
2023-03-28T05:34:15.687Z,26.50
2023-03-28T05:36:46.268Z,23.25
2023-03-28T05:39:23.518Z,21.02
2023-03-28T05:41:57.439Z,27.52
2023-03-28T05:44:24.154Z,25.05
2023-03-28T05:47:10.145Z,29.23
2023-03-28T05:49:36.867Z,26.52
2023-03-28T05:52:04.315Z,28.02
2023-03-28T05:54:31.090Z,29.63
2023-03-28T05:56:58.901Z,22.00
2023-03-28T05:59:25.724Z,25.75
2023-03-28T06:01:53.196Z,24.20
2023-03-28T06:04:21.653Z,25.20
2023-03-28T06:06:51.885Z,22.63
2023-03-28T06:09:24.583Z,14.50
2023-03-28T06:11:58.631Z,22.55
2023-03-28T06:14:26.022Z,16.63
2023-03-28T06:16:55.215Z,14.02
2023-03-28T06:19:22.030Z,14.05
2023-03-28T06:21:55.057Z,17.83
2023-03-28T06:24:21.826Z,21.20
2023-03-28T06:26:50.111Z,15.95
2023-03-28T06:29:19.797Z,19.65
2023-03-28T06:31:49.285Z,13.68
2023-03-28T06:34:17.169Z,14.68
2023-03-28T06:36:52.189Z,14.77
2023-03-28T06:39:18.876Z,18.67
2023-03-28T06:41:46.559Z,15.02
2023-03-28T06:44:13.171Z,17.13
2023-03-28T06:47:12.740Z,12.80
2023-03-28T06:49:39.697Z,16.63
2023-03-28T06:52:25.493Z,14.38
2023-03-28T06:54:53.366Z,20.25
2023-03-28T06:57:20.865Z,16.75
2023-03-28T06:59:49.156Z,23.00
2023-03-28T07:02:21.662Z,19.55
2023-03-28T07:04:49.538Z,17.95
2023-03-28T07:07:16.343Z,21.98
2023-03-28T07:09:43.543Z,19.13
2023-03-28T07:12:12.509Z,15.82
2023-03-28T07:14:40.589Z,12.27
2023-03-28T07:17:08.055Z,17.83
2023-03-28T07:19:34.688Z,14.18
2023-03-28T07:22:02.043Z,19.27
2023-03-28T07:24:29.628Z,22.40
2023-03-28T07:29:35.782Z,19.92
2023-03-28T07:32:03.259Z,13.75
2023-03-28T07:34:30.121Z,17.83
2023-03-28T07:37:02.188Z,17.73
2023-03-28T07:39:54.348Z,23.50
2023-03-28T07:42:23.881Z,24.15
2023-03-28T07:44:50.740Z,18.75
2023-03-28T07:47:18.569Z,24.17
2023-03-28T07:49:45.848Z,15.95
2023-03-28T07:52:14.063Z,15.85
2023-03-28T07:54:41.280Z,16.42
2023-03-28T07:57:08.612Z,14.55
2023-03-28T07:59:56.744Z,20.77
2023-03-28T08:02:24.623Z,18.55
2023-03-28T08:04:53.901Z,18.40
2023-03-28T08:07:25.884Z,21.13
2023-03-28T08:09:54.758Z,20.00
2023-03-28T08:12:26.988Z,22.05
2023-03-28T08:14:53.951Z,19.02
2023-03-28T08:17:22.820Z,19.05
2023-03-28T08:19:51.684Z,19.80
2023-03-28T08:22:44.257Z,21.33
2023-03-28T08:25:37.542Z,13.60
2023-03-28T08:28:05.311Z,16.73
2023-03-28T08:30:34.081Z,17.75
2023-03-28T08:33:04.373Z,21.58
2023-03-28T08:35:33.298Z,20.15
2023-03-28T08:38:04.273Z,12.30
2023-03-28T08:40:31.849Z,9.48
2023-03-28T08:43:31.816Z,17.23
2023-03-28T08:46:01.482Z,13.50
2023-03-28T08:48:39.647Z,16.90
2023-03-28T08:51:14.969Z,18.90
2023-03-28T08:53:46.019Z,19.90
2023-03-28T08:56:16.618Z,12.82
2023-03-28T08:58:51.275Z,14.85
2023-03-28T09:01:22.379Z,17.88
2023-03-28T09:03:53.292Z,15.25
2023-03-28T09:06:44.454Z,14.82
2023-03-28T09:09:46.009Z,14.52
2023-03-28T09:12:36.339Z,16.98
2023-03-28T09:15:21.213Z,14.43
2023-03-28T09:17:48.330Z,17.67
2023-03-28T09:20:28.239Z,14.40
2023-03-28T09:23:22.418Z,14.95
2023-03-28T09:26:30.242Z,22.08
2023-03-28T09:29:19.086Z,12.65
2023-03-28T09:34:29.114Z,8.10
2023-03-28T09:37:07.750Z,8.70
2023-03-28T09:39:49.584Z,12.40
2023-03-28T09:42:51.030Z,9.30
2023-03-28T09:45:58.888Z,15.23
2023-03-28T09:48:58.044Z,8.88
2023-03-28T09:51:30.102Z,10.48
2023-03-28T09:53:57.131Z,15.73
2023-03-28T09:56:32.328Z,19.05
2023-03-28T09:59:28.338Z,15.80
2023-03-28T10:01:57.987Z,7.60
2023-03-28T10:04:38.061Z,13.68
2023-03-28T10:07:45.083Z,12.13
2023-03-28T10:10:31.586Z,7.22
2023-03-28T10:13:05.173Z,6.15
2023-03-28T10:15:44.774Z,5.05
2023-03-28T10:18:33.205Z,7.22
2023-03-28T10:21:23.833Z,7.47
2023-03-28T10:24:05.646Z,11.25
2023-03-28T10:26:32.555Z,7.95
2023-03-28T10:29:06.472Z,7.45
2023-03-28T10:31:34.396Z,6.43
2023-03-28T10:34:30.722Z,8.43
2023-03-28T10:37:30.293Z,9.23
2023-03-28T10:40:19.375Z,8.15
2023-03-28T10:42:52.491Z,9.05
2023-03-28T10:45:45.896Z,5.38
2023-03-28T10:48:26.013Z,14.20
2023-03-28T10:50:59.457Z,7.25
2023-03-28T10:54:06.036Z,7.65
2023-03-28T10:56:38.362Z,9.20
2023-03-28T10:59:24.546Z,5.72
2023-03-28T11:02:02.095Z,9.18
2023-03-28T11:04:44.870Z,4.63
2023-03-28T11:07:15.933Z,6.82
2023-03-28T11:10:23.353Z,9.65
2023-03-28T11:13:28.314Z,7.30
2023-03-28T11:16:20.795Z,6.72
2023-03-28T11:19:19.920Z,8.55
2023-03-28T11:24:42.692Z,7.75
2023-03-28T11:28:21.106Z,13.68
2023-03-28T11:30:57.671Z,6.13
2023-03-28T11:33:59.256Z,7.45
2023-03-28T11:36:41.535Z,5.00
2023-03-28T11:39:48.415Z,11.30
2023-03-28T11:42:34.874Z,8.40
2023-03-28T11:45:43.299Z,6.43
2023-03-28T11:48:32.380Z,12.13
2023-03-28T11:51:17.658Z,4.05
2023-03-28T11:54:05.461Z,12.50
2023-03-28T11:57:18.408Z,10.18
2023-03-28T12:00:07.424Z,6.25
2023-03-28T12:02:51.396Z,10.45
2023-03-28T12:05:33.059Z,6.40
2023-03-28T12:08:16.300Z,7.05
2023-03-28T12:10:49.686Z,8.10
2023-03-28T12:16:24.527Z,10.60
2023-03-28T12:18:58.655Z,10.48
2023-03-28T12:21:55.847Z,6.45
2023-03-28T12:24:47.041Z,5.97
2023-03-28T12:27:48.887Z,5.05
2023-03-28T12:30:40.810Z,6.38
2023-03-28T12:33:37.341Z,6.85
2023-03-28T12:36:16.798Z,5.18
2023-03-28T12:38:59.552Z,6.90
2023-03-28T12:41:38.038Z,7.57
2023-03-28T12:44:13.921Z,6.05
2023-03-28T12:46:51.933Z,5.53
2023-03-28T12:49:37.442Z,6.00
2023-03-28T12:52:15.882Z,6.45
2023-03-28T12:55:24.710Z,5.13
2023-03-28T12:57:55.632Z,5.22
2023-03-28T13:01:13.332Z,5.07
2023-03-28T13:04:13.976Z,2.50
2023-03-28T13:07:28.134Z,7.70
2023-03-28T13:10:19.294Z,6.85
2023-03-28T13:13:00.610Z,9.63
2023-03-28T13:15:30.904Z,6.70
2023-03-28T13:18:20.331Z,9.98
2023-03-28T13:20:51.889Z,4.85
2023-03-28T13:23:42.363Z,11.35
2023-03-28T13:26:09.174Z,6.50
2023-03-28T13:28:50.997Z,10.05
2023-03-28T13:31:26.213Z,5.85
2023-03-28T13:33:58.864Z,5.47
2023-03-28T13:36:33.760Z,5.60
2023-03-28T13:39:20.691Z,4.07
2023-03-28T13:41:47.294Z,6.00
2023-03-28T13:44:22.115Z,8.88
2023-03-28T13:46:50.683Z,10.95
2023-03-28T13:49:41.696Z,11.30
2023-03-28T13:52:10.737Z,4.82
2023-03-28T13:54:38.089Z,5.88
2023-03-28T13:57:08.314Z,5.13
2023-03-28T13:59:39.410Z,10.52
2023-03-28T14:02:43.466Z,6.55
2023-03-28T14:05:20.254Z,3.42
2023-03-28T14:07:47.488Z,5.75
2023-03-28T14:10:21.894Z,5.30
2023-03-28T14:12:52.414Z,8.52
2023-03-28T14:15:27.398Z,10.60
2023-03-28T14:17:55.474Z,4.30
2023-03-28T14:20:23.264Z,6.18
2023-03-28T14:22:59.905Z,6.45
2023-03-28T14:25:28.798Z,5.43
2023-03-28T14:27:57.177Z,10.65
2023-03-28T14:30:31.033Z,8.63
2023-03-28T14:33:00.585Z,8.55
2023-03-28T14:35:35.623Z,11.43
2023-03-28T14:38:05.385Z,5.47
2023-03-28T14:40:38.409Z,7.97
2023-03-28T14:43:06.224Z,5.50
2023-03-28T14:45:43.621Z,8.35
2023-03-28T14:48:19.571Z,8.38
2023-03-28T14:50:50.200Z,5.47
2023-03-28T14:53:24.581Z,6.95
2023-03-28T14:55:54.668Z,5.13
2023-03-28T14:58:23.806Z,10.82
2023-03-28T15:00:55.241Z,9.50
2023-03-28T15:03:41.785Z,5.40
2023-03-28T15:06:15.659Z,4.03
2023-03-28T15:08:44.584Z,5.70
2023-03-28T15:11:16.974Z,5.50
2023-03-28T15:13:48.737Z,7.20
2023-03-28T15:16:20.774Z,7.32
2023-03-28T15:18:57.520Z,11.80
2023-03-28T15:21:24.945Z,5.28
2023-03-28T15:23:57.676Z,6.60
2023-03-28T15:26:29.237Z,5.88
2023-03-28T15:28:57.473Z,7.80
2023-03-28T15:31:26.064Z,4.38
2023-03-28T15:33:54.420Z,9.57
2023-03-28T15:36:35.172Z,6.35
2023-03-28T15:39:21.820Z,9.50
2023-03-28T15:41:52.803Z,11.95
2023-03-28T15:44:32.857Z,8.25
2023-03-28T15:47:13.097Z,9.38
2023-03-28T15:49:39.930Z,6.03
2023-03-28T15:52:21.479Z,4.80
2023-03-28T15:54:55.395Z,6.97
2023-03-28T15:57:27.627Z,11.18
2023-03-28T15:59:55.986Z,39.88
2023-03-28T16:02:23.388Z,14.77
2023-03-28T16:05:02.386Z,26.92
2023-03-28T16:07:36.988Z,12.50
2023-03-28T16:10:04.637Z,10.25
2023-03-28T16:12:36.990Z,9.23
2023-03-28T16:15:39.228Z,22.90
2023-03-28T16:18:19.449Z,15.82
2023-03-28T16:20:52.176Z,11.65
2023-03-28T16:23:18.811Z,10.02
2023-03-28T16:25:45.804Z,12.93
2023-03-28T16:28:18.720Z,7.78
2023-03-28T16:33:13.259Z,6.90
2023-03-28T16:35:40.243Z,5.10
2023-03-28T16:38:07.033Z,10.48
2023-03-28T16:40:33.830Z,9.48
2023-03-28T16:43:01.569Z,8.65
2023-03-28T16:45:29.651Z,8.70
2023-03-28T16:47:56.845Z,5.13
2023-03-28T16:50:23.465Z,9.63
2023-03-28T16:52:50.426Z,6.38
2023-03-28T16:55:18.397Z,7.38
2023-03-28T16:57:46.562Z,9.02
2023-03-28T17:00:17.827Z,9.63
2023-03-28T17:02:47.289Z,8.38
2023-03-28T17:05:15.411Z,7.40
2023-03-28T17:07:42.494Z,7.20
2023-03-28T17:10:09.874Z,8.15
2023-03-28T17:12:36.968Z,8.40
2023-03-28T17:15:04.086Z,8.38
2023-03-28T17:17:31.412Z,9.48
2023-03-28T17:19:58.195Z,8.90
2023-03-28T17:22:25.754Z,8.13
2023-03-28T17:24:52.538Z,9.18
2023-03-28T17:27:21.494Z,12.25
2023-03-28T17:29:48.167Z,6.10
2023-03-28T17:32:15.602Z,5.35
2023-03-28T17:34:42.243Z,14.63
2023-03-28T17:37:09.828Z,8.80
2023-03-28T17:39:37.082Z,12.60
2023-03-28T17:42:04.406Z,11.82
2023-03-28T17:44:32.503Z,11.20
2023-03-28T17:47:00.923Z,7.75
2023-03-28T17:49:27.691Z,6.47
2023-03-28T17:51:56.554Z,15.55
2023-03-28T17:54:24.533Z,10.73
2023-03-28T17:56:52.709Z,15.15
2023-03-28T17:59:19.607Z,13.43
2023-03-28T18:01:46.935Z,6.78
2023-03-28T18:04:13.571Z,8.43
2023-03-28T18:07:16.472Z,6.63
2023-03-28T18:09:45.244Z,11.90
2023-03-28T18:12:13.430Z,12.82
2023-03-28T18:14:40.274Z,11.23
2023-03-28T18:17:08.587Z,7.68
2023-03-28T18:19:35.522Z,5.95
2023-03-28T18:22:03.280Z,7.30
2023-03-28T18:24:29.881Z,6.68
2023-03-28T18:26:57.256Z,10.13
2023-03-28T18:29:24.116Z,8.02
2023-03-28T18:31:51.663Z,10.10
2023-03-28T18:34:18.433Z,4.88
2023-03-28T18:36:45.682Z,9.70
2023-03-28T18:39:12.478Z,4.97
2023-03-28T18:41:39.887Z,4.25
2023-03-28T18:44:06.758Z,12.13
2023-03-28T18:46:34.599Z,6.88
2023-03-28T18:49:01.742Z,3.53
2023-03-28T18:51:29.218Z,6.57
2023-03-28T18:53:56.475Z,5.47
2023-03-28T18:56:23.979Z,7.60
2023-03-28T18:58:50.841Z,7.15
2023-03-28T19:01:18.597Z,8.13
2023-03-28T19:03:46.763Z,7.00
2023-03-28T19:06:15.770Z,18.33
2023-03-28T19:08:44.472Z,10.85
2023-03-28T19:11:14.437Z,9.38
2023-03-28T19:13:41.641Z,8.95
2023-03-28T19:16:11.732Z,8.43
2023-03-28T19:18:40.296Z,6.93
2023-03-28T19:21:07.846Z,12.07
2023-03-28T19:23:36.725Z,8.07
2023-03-28T19:26:08.512Z,9.15
2023-03-28T19:28:35.521Z,8.73
2023-03-28T19:31:06.098Z,8.05
2023-03-28T19:33:32.935Z,12.35
2023-03-28T19:36:00.915Z,8.55
2023-03-28T19:38:28.335Z,6.57
2023-03-28T19:41:03.526Z,9.75
2023-03-28T19:43:30.566Z,7.05
2023-03-28T19:46:05.887Z,7.97
2023-03-28T19:48:34.645Z,9.88
2023-03-28T19:51:01.929Z,8.10
2023-03-28T19:53:28.550Z,11.35
2023-03-28T19:55:59.093Z,7.30
2023-03-28T19:58:27.043Z,9.15
2023-03-28T20:00:56.122Z,6.93
2023-03-28T20:03:22.766Z,13.38
2023-03-28T20:05:49.781Z,10.50
2023-03-28T20:08:18.665Z,7.50
2023-03-28T20:10:48.759Z,14.95
2023-03-28T20:13:16.554Z,10.57
2023-03-28T20:15:45.034Z,11.88
2023-03-28T20:18:20.041Z,6.18
2023-03-28T20:20:58.709Z,10.85
2023-03-28T20:23:26.945Z,8.48
2023-03-28T20:25:54.592Z,8.70
2023-03-28T20:28:25.250Z,10.35
2023-03-28T20:30:53.813Z,7.68
2023-03-28T20:33:20.654Z,9.27
2023-03-28T20:35:55.602Z,15.40
2023-03-28T20:38:22.642Z,16.88
2023-03-28T20:40:49.670Z,24.40
2023-03-28T20:43:26.450Z,13.57
2023-03-28T20:45:55.527Z,14.80
2023-03-28T20:48:36.619Z,8.93
2023-03-28T20:51:18.967Z,15.20
2023-03-28T20:53:49.838Z,10.05
2023-03-28T20:56:19.238Z,14.45
2023-03-28T20:58:46.363Z,9.02
2023-03-28T21:01:16.696Z,6.85
2023-03-28T21:03:48.102Z,8.18
2023-03-28T21:06:29.918Z,13.07
2023-03-28T21:09:01.757Z,10.95
2023-03-28T21:11:31.508Z,20.38
2023-03-28T21:13:59.736Z,8.77
2023-03-28T21:16:28.420Z,13.50
2023-03-28T21:18:55.430Z,9.35
2023-03-28T21:21:22.893Z,11.80
2023-03-28T21:23:49.720Z,8.40
2023-03-28T21:26:19.338Z,13.93
2023-03-28T21:28:46.356Z,12.55
2023-03-28T21:31:21.071Z,9.00
2023-03-28T21:33:48.911Z,11.05
2023-03-28T21:36:18.333Z,12.95
2023-03-28T21:38:46.779Z,12.50
2023-03-28T21:41:14.930Z,11.52
2023-03-28T21:43:42.105Z,12.13
2023-03-28T21:46:10.282Z,10.52
2023-03-28T21:48:37.613Z,10.50
2023-03-28T21:51:05.717Z,10.57
2023-03-28T21:53:35.991Z,14.13
2023-03-28T21:56:06.930Z,10.25
2023-03-28T21:58:34.399Z,11.57
2023-03-28T22:01:03.132Z,14.65
2023-03-28T22:03:30.469Z,12.23
2023-03-28T22:05:57.916Z,16.63
2023-03-28T22:08:24.613Z,12.57
2023-03-28T22:10:58.745Z,12.27
2023-03-28T22:13:25.366Z,17.52
2023-03-28T22:15:53.049Z,11.07
2023-03-28T22:18:20.717Z,10.30
2023-03-28T22:20:52.858Z,14.40
2023-03-28T22:23:21.800Z,12.70
2023-03-28T22:25:48.729Z,12.25
2023-03-28T22:28:16.287Z,13.90
2023-03-28T22:30:43.037Z,11.23
2023-03-28T22:33:11.265Z,11.98
2023-03-28T22:35:38.217Z,9.38
2023-03-28T22:38:05.910Z,12.82
2023-03-28T22:40:33.448Z,11.10
2023-03-28T22:43:00.611Z,16.20
2023-03-28T22:45:28.896Z,11.77
2023-03-28T22:47:59.901Z,9.75
2023-03-28T22:50:28.161Z,11.60
2023-03-28T22:52:55.746Z,11.25
2023-03-28T22:55:24.381Z,9.75
2023-03-28T22:57:52.368Z,12.10
2023-03-28T23:00:23.464Z,12.50
2023-03-28T23:02:51.452Z,12.02
2023-03-28T23:05:19.524Z,12.85
2023-03-28T23:07:46.359Z,11.75
2023-03-28T23:10:17.277Z,12.30
2023-03-28T23:12:44.293Z,12.88
2023-03-28T23:15:11.838Z,11.30
2023-03-28T23:17:39.035Z,12.60
2023-03-28T23:20:13.127Z,12.20
2023-03-28T23:22:41.382Z,14.23
2023-03-28T23:25:10.907Z,9.98
2023-03-28T23:27:37.878Z,16.65
2023-03-28T23:30:06.210Z,12.77
2023-03-28T23:32:32.946Z,8.70
2023-03-28T23:35:00.298Z,12.50
2023-03-28T23:37:27.308Z,15.13
2023-03-28T23:39:55.515Z,10.88
2023-03-28T23:42:23.659Z,12.85
2023-03-28T23:44:51.918Z,16.05
2023-03-28T23:47:20.214Z,13.43
2023-03-28T23:49:47.689Z,11.32
2023-03-28T23:52:16.064Z,11.20
2023-03-28T23:54:43.687Z,15.00
2023-03-28T23:57:10.415Z,10.60
2023-03-28T23:59:37.728Z,11.43
